sensor_id;sensor_type;location;lat;lon;timestamp;P1;durP1;ratioP1;P2;durP2;ratioP2
9729;SDS011;4904;49.152;11.004;2023-02-22T00:00:33;3.83;;;3.53;;
9729;SDS011;4904;49.152;11.004;2023-02-22T00:03:08;4.00;;;3.60;;
9729;SDS011;4904;49.152;11.004;2023-02-22T00:05:36;4.15;;;3.75;;
9729;SDS011;4904;49.152;11.004;2023-02-22T00:08:05;3.88;;;3.55;;
9729;SDS011;4904;49.152;11.004;2023-02-22T00:10:34;3.95;;;3.65;;
9729;SDS011;4904;49.152;11.004;2023-02-22T00:13:04;3.50;;;3.20;;
9729;SDS011;4904;49.152;11.004;2023-02-22T00:15:32;5.68;;;3.40;;
9729;SDS011;4904;49.152;11.004;2023-02-22T00:18:00;3.92;;;3.60;;
9729;SDS011;4904;49.152;11.004;2023-02-22T00:20:29;4.13;;;3.72;;
9729;SDS011;4904;49.152;11.004;2023-02-22T00:22:56;3.65;;;3.35;;
9729;SDS011;4904;49.152;11.004;2023-02-22T00:25:25;4.45;;;3.88;;
9729;SDS011;4904;49.152;11.004;2023-02-22T00:27:53;4.38;;;3.80;;
9729;SDS011;4904;49.152;11.004;2023-02-22T00:30:22;3.95;;;3.55;;
9729;SDS011;4904;49.152;11.004;2023-02-22T00:32:50;4.88;;;3.70;;
9729;SDS011;4904;49.152;11.004;2023-02-22T00:35:20;4.55;;;3.75;;
9729;SDS011;4904;49.152;11.004;2023-02-22T00:37:49;4.50;;;3.70;;
9729;SDS011;4904;49.152;11.004;2023-02-22T00:40:21;5.55;;;3.28;;
9729;SDS011;4904;49.152;11.004;2023-02-22T00:42:50;3.90;;;3.42;;
9729;SDS011;4904;49.152;11.004;2023-02-22T00:45:19;5.30;;;4.10;;
9729;SDS011;4904;49.152;11.004;2023-02-22T00:47:48;3.80;;;3.50;;
9729;SDS011;4904;49.152;11.004;2023-02-22T00:50:15;4.20;;;3.80;;
9729;SDS011;4904;49.152;11.004;2023-02-22T00:52:43;3.90;;;3.38;;
9729;SDS011;4904;49.152;11.004;2023-02-22T00:55:14;4.03;;;3.63;;
9729;SDS011;4904;49.152;11.004;2023-02-22T00:57:42;3.38;;;3.08;;
9729;SDS011;4904;49.152;11.004;2023-02-22T01:00:13;5.50;;;3.42;;
9729;SDS011;4904;49.152;11.004;2023-02-22T01:02:43;4.72;;;3.70;;
9729;SDS011;4904;49.152;11.004;2023-02-22T01:05:11;4.35;;;3.90;;
9729;SDS011;4904;49.152;11.004;2023-02-22T01:07:40;3.60;;;3.30;;
9729;SDS011;4904;49.152;11.004;2023-02-22T01:10:07;3.67;;;3.38;;
9729;SDS011;4904;49.152;11.004;2023-02-22T01:12:36;3.88;;;3.53;;
9729;SDS011;4904;49.152;11.004;2023-02-22T01:15:03;3.97;;;3.58;;
9729;SDS011;4904;49.152;11.004;2023-02-22T01:17:34;5.53;;;4.00;;
9729;SDS011;4904;49.152;11.004;2023-02-22T01:20:03;6.50;;;4.00;;
9729;SDS011;4904;49.152;11.004;2023-02-22T01:22:34;4.78;;;3.90;;
9729;SDS011;4904;49.152;11.004;2023-02-22T01:25:01;5.57;;;4.25;;
9729;SDS011;4904;49.152;11.004;2023-02-22T01:27:31;4.88;;;3.92;;
9729;SDS011;4904;49.152;11.004;2023-02-22T01:29:58;5.03;;;4.47;;
9729;SDS011;4904;49.152;11.004;2023-02-22T01:32:25;4.70;;;4.30;;
9729;SDS011;4904;49.152;11.004;2023-02-22T01:34:52;5.77;;;4.27;;
9729;SDS011;4904;49.152;11.004;2023-02-22T01:37:20;4.30;;;3.90;;
9729;SDS011;4904;49.152;11.004;2023-02-22T01:39:47;4.30;;;3.90;;
9729;SDS011;4904;49.152;11.004;2023-02-22T01:42:13;6.28;;;4.22;;
9729;SDS011;4904;49.152;11.004;2023-02-22T01:44:40;6.22;;;4.20;;
9729;SDS011;4904;49.152;11.004;2023-02-22T01:47:09;6.50;;;4.57;;
9729;SDS011;4904;49.152;11.004;2023-02-22T01:49:37;4.57;;;4.18;;
9729;SDS011;4904;49.152;11.004;2023-02-22T01:52:08;5.50;;;3.90;;
9729;SDS011;4904;49.152;11.004;2023-02-22T01:54:42;5.78;;;4.10;;
9729;SDS011;4904;49.152;11.004;2023-02-22T01:57:12;4.93;;;4.15;;
9729;SDS011;4904;49.152;11.004;2023-02-22T01:59:45;5.40;;;4.40;;
9729;SDS011;4904;49.152;11.004;2023-02-22T02:02:15;5.77;;;4.50;;
9729;SDS011;4904;49.152;11.004;2023-02-22T02:04:43;5.37;;;3.90;;
9729;SDS011;4904;49.152;11.004;2023-02-22T02:07:12;5.45;;;4.15;;
9729;SDS011;4904;49.152;11.004;2023-02-22T02:09:43;4.77;;;4.10;;
9729;SDS011;4904;49.152;11.004;2023-02-22T02:12:14;3.80;;;3.37;;
9729;SDS011;4904;49.152;11.004;2023-02-22T02:14:42;4.57;;;4.00;;
9729;SDS011;4904;49.152;11.004;2023-02-22T02:17:10;4.03;;;3.63;;
9729;SDS011;4904;49.152;11.004;2023-02-22T02:19:40;4.20;;;3.30;;
9729;SDS011;4904;49.152;11.004;2023-02-22T02:22:22;5.00;;;3.87;;
9729;SDS011;4904;49.152;11.004;2023-02-22T02:31:26;5.27;;;3.87;;
9729;SDS011;4904;49.152;11.004;2023-02-22T02:34:11;4.80;;;4.30;;
9729;SDS011;4904;49.152;11.004;2023-02-22T02:36:46;5.63;;;4.37;;
9729;SDS011;4904;49.152;11.004;2023-02-22T02:39:22;4.83;;;4.33;;
9729;SDS011;4904;49.152;11.004;2023-02-22T02:41:54;4.63;;;3.90;;
9729;SDS011;4904;49.152;11.004;2023-02-22T02:44:25;5.43;;;4.23;;
9729;SDS011;4904;49.152;11.004;2023-02-22T02:46:58;6.30;;;3.80;;
9729;SDS011;4904;49.152;11.004;2023-02-22T02:49:30;4.50;;;4.07;;
9729;SDS011;4904;49.152;11.004;2023-02-22T02:52:01;6.67;;;4.10;;
9729;SDS011;4904;49.152;11.004;2023-02-22T02:54:30;4.63;;;4.10;;
9729;SDS011;4904;49.152;11.004;2023-02-22T02:56:57;5.03;;;4.30;;
9729;SDS011;4904;49.152;11.004;2023-02-22T02:59:25;4.93;;;3.97;;
9729;SDS011;4904;49.152;11.004;2023-02-22T03:01:56;5.00;;;4.40;;
9729;SDS011;4904;49.152;11.004;2023-02-22T03:04:50;5.53;;;3.87;;
9729;SDS011;4904;49.152;11.004;2023-02-22T03:07:31;4.67;;;4.13;;
9729;SDS011;4904;49.152;11.004;2023-02-22T03:13:05;7.33;;;4.80;;
9729;SDS011;4904;49.152;11.004;2023-02-22T03:15:42;5.07;;;4.07;;
9729;SDS011;4904;49.152;11.004;2023-02-22T03:18:17;6.30;;;4.80;;
9729;SDS011;4904;49.152;11.004;2023-02-22T03:20:55;5.88;;;4.65;;
9729;SDS011;4904;49.152;11.004;2023-02-22T03:23:28;5.05;;;4.53;;
9729;SDS011;4904;49.152;11.004;2023-02-22T03:26:01;6.65;;;3.85;;
9729;SDS011;4904;49.152;11.004;2023-02-22T03:28:30;6.30;;;4.07;;
9729;SDS011;4904;49.152;11.004;2023-02-22T03:30:59;6.57;;;4.43;;
9729;SDS011;4904;49.152;11.004;2023-02-22T03:33:31;6.30;;;4.00;;
9729;SDS011;4904;49.152;11.004;2023-02-22T03:36:06;5.07;;;4.10;;
9729;SDS011;4904;49.152;11.004;2023-02-22T03:38:38;5.28;;;4.15;;
9729;SDS011;4904;49.152;11.004;2023-02-22T03:41:09;4.90;;;4.40;;
9729;SDS011;4904;49.152;11.004;2023-02-22T03:43:40;6.78;;;4.05;;
9729;SDS011;4904;49.152;11.004;2023-02-22T03:46:09;5.88;;;4.55;;
9729;SDS011;4904;49.152;11.004;2023-02-22T03:48:40;4.47;;;3.90;;
9729;SDS011;4904;49.152;11.004;2023-02-22T03:51:13;6.53;;;4.53;;
9729;SDS011;4904;49.152;11.004;2023-02-22T03:53:42;6.43;;;4.27;;
9729;SDS011;4904;49.152;11.004;2023-02-22T03:56:10;4.90;;;4.40;;
9729;SDS011;4904;49.152;11.004;2023-02-22T03:58:40;5.85;;;4.25;;
9729;SDS011;4904;49.152;11.004;2023-02-22T04:01:10;5.40;;;4.63;;
9729;SDS011;4904;49.152;11.004;2023-02-22T04:03:38;6.03;;;4.10;;
9729;SDS011;4904;49.152;11.004;2023-02-22T04:06:06;4.97;;;4.23;;
9729;SDS011;4904;49.152;11.004;2023-02-22T04:08:34;6.07;;;4.50;;
9729;SDS011;4904;49.152;11.004;2023-02-22T04:11:01;4.37;;;3.97;;
9729;SDS011;4904;49.152;11.004;2023-02-22T04:13:29;6.20;;;4.50;;
9729;SDS011;4904;49.152;11.004;2023-02-22T04:15:56;6.07;;;4.13;;
9729;SDS011;4904;49.152;11.004;2023-02-22T04:18:23;5.63;;;4.30;;
9729;SDS011;4904;49.152;11.004;2023-02-22T04:20:49;5.82;;;4.63;;
9729;SDS011;4904;49.152;11.004;2023-02-22T04:23:16;5.83;;;4.07;;
9729;SDS011;4904;49.152;11.004;2023-02-22T04:25:45;5.17;;;3.70;;
9729;SDS011;4904;49.152;11.004;2023-02-22T04:28:11;5.35;;;4.20;;
9729;SDS011;4904;49.152;11.004;2023-02-22T04:30:39;5.22;;;4.30;;
9729;SDS011;4904;49.152;11.004;2023-02-22T04:33:07;4.68;;;3.85;;
9729;SDS011;4904;49.152;11.004;2023-02-22T04:35:34;8.95;;;4.18;;
9729;SDS011;4904;49.152;11.004;2023-02-22T04:38:01;4.93;;;4.20;;
9729;SDS011;4904;49.152;11.004;2023-02-22T04:40:29;4.40;;;4.00;;
9729;SDS011;4904;49.152;11.004;2023-02-22T04:42:57;4.57;;;4.03;;
9729;SDS011;4904;49.152;11.004;2023-02-22T04:45:25;7.10;;;4.47;;
9729;SDS011;4904;49.152;11.004;2023-02-22T04:47:52;4.78;;;3.90;;
9729;SDS011;4904;49.152;11.004;2023-02-22T04:50:19;5.97;;;4.00;;
9729;SDS011;4904;49.152;11.004;2023-02-22T04:52:46;4.32;;;3.90;;
9729;SDS011;4904;49.152;11.004;2023-02-22T04:55:13;5.07;;;4.00;;
9729;SDS011;4904;49.152;11.004;2023-02-22T04:57:40;4.93;;;4.03;;
9729;SDS011;4904;49.152;11.004;2023-02-22T05:00:09;4.93;;;4.17;;
9729;SDS011;4904;49.152;11.004;2023-02-22T05:02:45;5.88;;;4.38;;
9729;SDS011;4904;49.152;11.004;2023-02-22T05:05:12;8.65;;;6.90;;
9729;SDS011;4904;49.152;11.004;2023-02-22T05:07:40;12.48;;;8.07;;
9729;SDS011;4904;49.152;11.004;2023-02-22T05:10:07;11.98;;;8.10;;
9729;SDS011;4904;49.152;11.004;2023-02-22T05:12:34;11.43;;;8.00;;
9729;SDS011;4904;49.152;11.004;2023-02-22T05:15:01;12.73;;;8.35;;
9729;SDS011;4904;49.152;11.004;2023-02-22T05:17:29;11.40;;;7.50;;
9729;SDS011;4904;49.152;11.004;2023-02-22T05:19:56;11.00;;;7.60;;
9729;SDS011;4904;49.152;11.004;2023-02-22T05:22:23;10.73;;;7.80;;
9729;SDS011;4904;49.152;11.004;2023-02-22T05:24:50;11.53;;;7.83;;
9729;SDS011;4904;49.152;11.004;2023-02-22T05:27:20;10.63;;;7.27;;
9729;SDS011;4904;49.152;11.004;2023-02-22T05:29:48;10.47;;;7.80;;
9729;SDS011;4904;49.152;11.004;2023-02-22T05:32:15;8.77;;;6.90;;
9729;SDS011;4904;49.152;11.004;2023-02-22T05:34:43;9.50;;;6.63;;
9729;SDS011;4904;49.152;11.004;2023-02-22T05:37:10;8.40;;;6.63;;
9729;SDS011;4904;49.152;11.004;2023-02-22T05:39:37;7.67;;;6.17;;
9729;SDS011;4904;49.152;11.004;2023-02-22T05:42:04;8.33;;;5.60;;
9729;SDS011;4904;49.152;11.004;2023-02-22T05:44:31;8.93;;;6.63;;
9729;SDS011;4904;49.152;11.004;2023-02-22T05:46:57;9.40;;;5.50;;
9729;SDS011;4904;49.152;11.004;2023-02-22T05:49:24;6.97;;;5.13;;
9729;SDS011;4904;49.152;11.004;2023-02-22T05:51:52;7.73;;;5.70;;
9729;SDS011;4904;49.152;11.004;2023-02-22T05:54:23;9.80;;;5.47;;
9729;SDS011;4904;49.152;11.004;2023-02-22T05:56:50;9.00;;;6.00;;
9729;SDS011;4904;49.152;11.004;2023-02-22T05:59:17;8.97;;;5.27;;
9729;SDS011;4904;49.152;11.004;2023-02-22T06:01:44;8.10;;;5.23;;
9729;SDS011;4904;49.152;11.004;2023-02-22T06:04:11;7.03;;;5.60;;
9729;SDS011;4904;49.152;11.004;2023-02-22T06:06:38;10.37;;;5.80;;
9729;SDS011;4904;49.152;11.004;2023-02-22T06:09:06;9.67;;;6.20;;
9729;SDS011;4904;49.152;11.004;2023-02-22T06:11:33;10.50;;;6.10;;
9729;SDS011;4904;49.152;11.004;2023-02-22T06:14:01;8.73;;;5.93;;
9729;SDS011;4904;49.152;11.004;2023-02-22T06:16:28;8.53;;;6.03;;
9729;SDS011;4904;49.152;11.004;2023-02-22T06:18:55;8.40;;;5.60;;
9729;SDS011;4904;49.152;11.004;2023-02-22T06:21:23;7.80;;;5.90;;
9729;SDS011;4904;49.152;11.004;2023-02-22T06:23:50;10.40;;;7.27;;
9729;SDS011;4904;49.152;11.004;2023-02-22T06:26:19;7.47;;;6.03;;
9729;SDS011;4904;49.152;11.004;2023-02-22T06:28:47;8.97;;;6.20;;
9729;SDS011;4904;49.152;11.004;2023-02-22T06:31:14;8.20;;;5.87;;
9729;SDS011;4904;49.152;11.004;2023-02-22T06:33:41;8.80;;;5.80;;
9729;SDS011;4904;49.152;11.004;2023-02-22T06:36:08;7.13;;;5.68;;
9729;SDS011;4904;49.152;11.004;2023-02-22T06:38:35;6.90;;;5.00;;
9729;SDS011;4904;49.152;11.004;2023-02-22T06:41:02;7.07;;;4.97;;
9729;SDS011;4904;49.152;11.004;2023-02-22T06:43:30;6.97;;;4.80;;
9729;SDS011;4904;49.152;11.004;2023-02-22T06:45:57;6.60;;;4.90;;
9729;SDS011;4904;49.152;11.004;2023-02-22T06:48:24;6.90;;;5.07;;
9729;SDS011;4904;49.152;11.004;2023-02-22T06:50:51;6.22;;;4.85;;
9729;SDS011;4904;49.152;11.004;2023-02-22T06:53:17;5.63;;;4.27;;
9729;SDS011;4904;49.152;11.004;2023-02-22T06:55:45;7.57;;;4.97;;
9729;SDS011;4904;49.152;11.004;2023-02-22T06:58:11;6.43;;;4.38;;
9729;SDS011;4904;49.152;11.004;2023-02-22T07:00:40;6.00;;;5.03;;
9729;SDS011;4904;49.152;11.004;2023-02-22T07:03:07;8.97;;;5.20;;
9729;SDS011;4904;49.152;11.004;2023-02-22T07:05:35;26.30;;;6.70;;
9729;SDS011;4904;49.152;11.004;2023-02-22T07:08:03;9.87;;;5.33;;
9729;SDS011;4904;49.152;11.004;2023-02-22T07:10:32;20.13;;;5.97;;
9729;SDS011;4904;49.152;11.004;2023-02-22T07:13:00;6.80;;;5.30;;
9729;SDS011;4904;49.152;11.004;2023-02-22T07:15:29;8.83;;;5.87;;
9729;SDS011;4904;49.152;11.004;2023-02-22T07:17:59;8.13;;;5.47;;
9729;SDS011;4904;49.152;11.004;2023-02-22T07:20:27;8.70;;;5.00;;
9729;SDS011;4904;49.152;11.004;2023-02-22T07:22:55;7.17;;;5.47;;
9729;SDS011;4904;49.152;11.004;2023-02-22T07:25:22;8.80;;;5.43;;
9729;SDS011;4904;49.152;11.004;2023-02-22T07:27:49;8.47;;;5.17;;
9729;SDS011;4904;49.152;11.004;2023-02-22T07:30:18;7.17;;;5.00;;
9729;SDS011;4904;49.152;11.004;2023-02-22T07:32:49;11.43;;;5.90;;
9729;SDS011;4904;49.152;11.004;2023-02-22T07:35:18;19.17;;;5.90;;
9729;SDS011;4904;49.152;11.004;2023-02-22T07:37:47;10.77;;;5.28;;
9729;SDS011;4904;49.152;11.004;2023-02-22T07:40:14;9.67;;;5.27;;
9729;SDS011;4904;49.152;11.004;2023-02-22T07:42:49;7.17;;;4.70;;
9729;SDS011;4904;49.152;11.004;2023-02-22T07:45:17;19.67;;;6.28;;
9729;SDS011;4904;49.152;11.004;2023-02-22T07:47:45;19.20;;;6.25;;
9729;SDS011;4904;49.152;11.004;2023-02-22T07:50:12;6.97;;;5.30;;
9729;SDS011;4904;49.152;11.004;2023-02-22T07:52:43;7.72;;;6.15;;
9729;SDS011;4904;49.152;11.004;2023-02-22T07:55:10;7.78;;;6.10;;
9729;SDS011;4904;49.152;11.004;2023-02-22T07:57:38;8.17;;;6.20;;
9729;SDS011;4904;49.152;11.004;2023-02-22T08:00:05;7.00;;;6.30;;
9729;SDS011;4904;49.152;11.004;2023-02-22T08:02:33;7.38;;;6.00;;
9729;SDS011;4904;49.152;11.004;2023-02-22T08:05:00;10.20;;;6.57;;
9729;SDS011;4904;49.152;11.004;2023-02-22T08:07:27;8.15;;;6.22;;
9729;SDS011;4904;49.152;11.004;2023-02-22T08:09:55;7.30;;;6.07;;
9729;SDS011;4904;49.152;11.004;2023-02-22T08:12:22;9.93;;;7.18;;
9729;SDS011;4904;49.152;11.004;2023-02-22T08:14:49;7.75;;;6.22;;
9729;SDS011;4904;49.152;11.004;2023-02-22T08:17:16;9.38;;;6.93;;
9729;SDS011;4904;49.152;11.004;2023-02-22T08:19:43;8.90;;;7.75;;
9729;SDS011;4904;49.152;11.004;2023-02-22T08:22:09;9.38;;;7.45;;
9729;SDS011;4904;49.152;11.004;2023-02-22T08:24:36;8.60;;;7.15;;
9729;SDS011;4904;49.152;11.004;2023-02-22T08:27:06;9.48;;;8.20;;
9729;SDS011;4904;49.152;11.004;2023-02-22T08:29:32;9.05;;;8.00;;
9729;SDS011;4904;49.152;11.004;2023-02-22T08:31:59;14.02;;;7.82;;
9729;SDS011;4904;49.152;11.004;2023-02-22T08:34:26;14.57;;;8.15;;
9729;SDS011;4904;49.152;11.004;2023-02-22T08:36:53;26.75;;;10.02;;
9729;SDS011;4904;49.152;11.004;2023-02-22T08:39:21;17.80;;;9.07;;
9729;SDS011;4904;49.152;11.004;2023-02-22T08:41:47;13.40;;;8.55;;
9729;SDS011;4904;49.152;11.004;2023-02-22T08:44:16;22.23;;;10.10;;
9729;SDS011;4904;49.152;11.004;2023-02-22T08:46:43;12.90;;;8.20;;
9729;SDS011;4904;49.152;11.004;2023-02-22T08:49:09;10.30;;;8.20;;
9729;SDS011;4904;49.152;11.004;2023-02-22T08:51:36;15.85;;;8.50;;
9729;SDS011;4904;49.152;11.004;2023-02-22T08:54:03;14.38;;;8.65;;
9729;SDS011;4904;49.152;11.004;2023-02-22T08:56:31;22.02;;;9.90;;
9729;SDS011;4904;49.152;11.004;2023-02-22T08:58:58;11.98;;;9.40;;
9729;SDS011;4904;49.152;11.004;2023-02-22T09:01:26;12.32;;;10.45;;
9729;SDS011;4904;49.152;11.004;2023-02-22T09:03:54;13.40;;;10.73;;
9729;SDS011;4904;49.152;11.004;2023-02-22T09:06:21;14.88;;;12.65;;
9729;SDS011;4904;49.152;11.004;2023-02-22T09:08:48;19.92;;;15.20;;
9729;SDS011;4904;49.152;11.004;2023-02-22T09:11:15;29.85;;;22.40;;
9729;SDS011;4904;49.152;11.004;2023-02-22T09:13:43;27.55;;;21.08;;
9729;SDS011;4904;49.152;11.004;2023-02-22T09:16:09;17.00;;;14.23;;
9729;SDS011;4904;49.152;11.004;2023-02-22T09:18:38;12.77;;;11.23;;
9729;SDS011;4904;49.152;11.004;2023-02-22T09:21:05;11.85;;;10.05;;
9729;SDS011;4904;49.152;11.004;2023-02-22T09:23:32;11.43;;;9.15;;
9729;SDS011;4904;49.152;11.004;2023-02-22T09:25:59;12.65;;;9.48;;
9729;SDS011;4904;49.152;11.004;2023-02-22T09:28:26;10.25;;;9.18;;
9729;SDS011;4904;49.152;11.004;2023-02-22T09:30:53;12.00;;;10.50;;
9729;SDS011;4904;49.152;11.004;2023-02-22T09:33:20;11.43;;;10.20;;
9729;SDS011;4904;49.152;11.004;2023-02-22T09:35:48;10.80;;;9.30;;
9729;SDS011;4904;49.152;11.004;2023-02-22T09:38:17;9.60;;;8.60;;
9729;SDS011;4904;49.152;11.004;2023-02-22T09:40:47;7.47;;;6.78;;
9729;SDS011;4904;49.152;11.004;2023-02-22T09:43:20;7.85;;;6.57;;
9729;SDS011;4904;49.152;11.004;2023-02-22T09:46:02;10.38;;;7.25;;
9729;SDS011;4904;49.152;11.004;2023-02-22T09:48:38;10.95;;;7.70;;
9729;SDS011;4904;49.152;11.004;2023-02-22T09:51:15;8.85;;;7.78;;
9729;SDS011;4904;49.152;11.004;2023-02-22T09:53:44;8.70;;;7.03;;
9729;SDS011;4904;49.152;11.004;2023-02-22T09:56:15;6.60;;;5.95;;
9729;SDS011;4904;49.152;11.004;2023-02-22T09:58:43;14.93;;;6.60;;
9729;SDS011;4904;49.152;11.004;2023-02-22T10:01:15;6.63;;;5.93;;
9729;SDS011;4904;49.152;11.004;2023-02-22T10:03:49;7.18;;;5.80;;
9729;SDS011;4904;49.152;11.004;2023-02-22T10:06:21;6.60;;;5.47;;
9729;SDS011;4904;49.152;11.004;2023-02-22T10:08:50;7.50;;;5.97;;
9729;SDS011;4904;49.152;11.004;2023-02-22T10:11:35;6.93;;;6.22;;
9729;SDS011;4904;49.152;11.004;2023-02-22T10:14:26;11.68;;;6.05;;
9729;SDS011;4904;49.152;11.004;2023-02-22T10:17:02;6.70;;;5.00;;
9729;SDS011;4904;49.152;11.004;2023-02-22T10:19:39;5.85;;;4.97;;
9729;SDS011;4904;49.152;11.004;2023-02-22T10:22:28;6.63;;;4.90;;
9729;SDS011;4904;49.152;11.004;2023-02-22T10:25:04;5.78;;;4.70;;
9729;SDS011;4904;49.152;11.004;2023-02-22T10:27:37;6.32;;;5.03;;
9729;SDS011;4904;49.152;11.004;2023-02-22T10:30:14;6.95;;;5.20;;
9729;SDS011;4904;49.152;11.004;2023-02-22T10:32:46;5.82;;;4.50;;
9729;SDS011;4904;49.152;11.004;2023-02-22T10:35:17;5.20;;;4.50;;
9729;SDS011;4904;49.152;11.004;2023-02-22T10:37:51;4.72;;;4.22;;
9729;SDS011;4904;49.152;11.004;2023-02-22T10:40:22;4.38;;;3.97;;
9729;SDS011;4904;49.152;11.004;2023-02-22T10:42:56;4.85;;;4.15;;
9729;SDS011;4904;49.152;11.004;2023-02-22T10:45:28;5.03;;;4.47;;
9729;SDS011;4904;49.152;11.004;2023-02-22T10:47:57;4.95;;;4.45;;
9729;SDS011;4904;49.152;11.004;2023-02-22T10:50:27;6.25;;;4.10;;
9729;SDS011;4904;49.152;11.004;2023-02-22T10:52:57;5.57;;;4.57;;
9729;SDS011;4904;49.152;11.004;2023-02-22T10:55:24;5.70;;;4.60;;
9729;SDS011;4904;49.152;11.004;2023-02-22T10:57:57;4.85;;;4.20;;
9729;SDS011;4904;49.152;11.004;2023-02-22T11:00:29;4.45;;;3.75;;
9729;SDS011;4904;49.152;11.004;2023-02-22T11:03:01;4.55;;;4.07;;
9729;SDS011;4904;49.152;11.004;2023-02-22T11:05:33;4.88;;;4.30;;
9729;SDS011;4904;49.152;11.004;2023-02-22T11:08:18;4.20;;;3.80;;
9729;SDS011;4904;49.152;11.004;2023-02-22T11:10:51;4.40;;;3.63;;
9729;SDS011;4904;49.152;11.004;2023-02-22T11:13:22;3.65;;;3.28;;
9729;SDS011;4904;49.152;11.004;2023-02-22T11:15:51;3.83;;;3.40;;
9729;SDS011;4904;49.152;11.004;2023-02-22T11:18:23;3.85;;;3.30;;
9729;SDS011;4904;49.152;11.004;2023-02-22T11:21:02;5.50;;;3.53;;
9729;SDS011;4904;49.152;11.004;2023-02-22T11:23:33;4.28;;;3.70;;
9729;SDS011;4904;49.152;11.004;2023-02-22T11:26:03;5.55;;;4.00;;
9729;SDS011;4904;49.152;11.004;2023-02-22T11:28:33;3.95;;;3.53;;
9729;SDS011;4904;49.152;11.004;2023-02-22T11:31:13;5.53;;;3.45;;
9729;SDS011;4904;49.152;11.004;2023-02-22T11:33:47;5.20;;;3.72;;
9729;SDS011;4904;49.152;11.004;2023-02-22T11:36:31;4.90;;;3.00;;
9729;SDS011;4904;49.152;11.004;2023-02-22T11:39:03;3.88;;;2.83;;
9729;SDS011;4904;49.152;11.004;2023-02-22T11:41:35;3.35;;;2.90;;
9729;SDS011;4904;49.152;11.004;2023-02-22T11:44:12;3.30;;;3.00;;
9729;SDS011;4904;49.152;11.004;2023-02-22T11:46:46;4.20;;;3.25;;
9729;SDS011;4904;49.152;11.004;2023-02-22T11:49:13;3.50;;;3.20;;
9729;SDS011;4904;49.152;11.004;2023-02-22T11:51:48;3.08;;;2.85;;
9729;SDS011;4904;49.152;11.004;2023-02-22T11:54:30;3.63;;;3.00;;
9729;SDS011;4904;49.152;11.004;2023-02-22T11:57:20;3.13;;;2.83;;
9729;SDS011;4904;49.152;11.004;2023-02-22T12:06:01;3.55;;;2.55;;
9729;SDS011;4904;49.152;11.004;2023-02-22T12:08:37;3.25;;;2.35;;
9729;SDS011;4904;49.152;11.004;2023-02-22T12:11:15;2.97;;;2.55;;
9729;SDS011;4904;49.152;11.004;2023-02-22T12:13:50;2.75;;;2.55;;
9729;SDS011;4904;49.152;11.004;2023-02-22T12:16:31;2.70;;;2.50;;
9729;SDS011;4904;49.152;11.004;2023-02-22T12:19:10;2.60;;;2.33;;
9729;SDS011;4904;49.152;11.004;2023-02-22T12:21:43;2.95;;;2.70;;
9729;SDS011;4904;49.152;11.004;2023-02-22T12:24:14;2.55;;;2.22;;
9729;SDS011;4904;49.152;11.004;2023-02-22T12:26:47;4.90;;;2.65;;
9729;SDS011;4904;49.152;11.004;2023-02-22T12:29:26;3.67;;;2.45;;
9729;SDS011;4904;49.152;11.004;2023-02-22T12:31:58;3.10;;;2.58;;
9729;SDS011;4904;49.152;11.004;2023-02-22T12:34:30;2.45;;;2.17;;
9729;SDS011;4904;49.152;11.004;2023-02-22T12:37:04;2.40;;;2.20;;
9729;SDS011;4904;49.152;11.004;2023-02-22T12:39:39;2.97;;;2.45;;
9729;SDS011;4904;49.152;11.004;2023-02-22T12:42:17;2.45;;;2.25;;
9729;SDS011;4904;49.152;11.004;2023-02-22T12:44:51;2.50;;;2.30;;
9729;SDS011;4904;49.152;11.004;2023-02-22T12:47:25;2.33;;;2.03;;
9729;SDS011;4904;49.152;11.004;2023-02-22T12:49:58;3.38;;;2.28;;
9729;SDS011;4904;49.152;11.004;2023-02-22T12:52:34;2.30;;;2.03;;
9729;SDS011;4904;49.152;11.004;2023-02-22T12:55:10;2.53;;;2.33;;
9729;SDS011;4904;49.152;11.004;2023-02-22T12:57:47;4.95;;;2.72;;
9729;SDS011;4904;49.152;11.004;2023-02-22T13:00:21;2.88;;;2.40;;
9729;SDS011;4904;49.152;11.004;2023-02-22T13:02:57;2.95;;;2.65;;
9729;SDS011;4904;49.152;11.004;2023-02-22T13:05:26;2.40;;;2.20;;
9729;SDS011;4904;49.152;11.004;2023-02-22T13:08:04;2.70;;;2.50;;
9729;SDS011;4904;49.152;11.004;2023-02-22T13:10:47;2.33;;;2.13;;
9729;SDS011;4904;49.152;11.004;2023-02-22T13:13:26;2.67;;;2.35;;
9729;SDS011;4904;49.152;11.004;2023-02-22T13:16:00;4.43;;;2.40;;
9729;SDS011;4904;49.152;11.004;2023-02-22T13:18:34;2.55;;;2.33;;
9729;SDS011;4904;49.152;11.004;2023-02-22T13:21:10;2.15;;;2.05;;
9729;SDS011;4904;49.152;11.004;2023-02-22T13:23:44;2.58;;;2.15;;
9729;SDS011;4904;49.152;11.004;2023-02-22T13:26:20;2.25;;;2.10;;
9729;SDS011;4904;49.152;11.004;2023-02-22T13:28:55;2.03;;;1.90;;
9729;SDS011;4904;49.152;11.004;2023-02-22T13:31:30;2.47;;;2.00;;
9729;SDS011;4904;49.152;11.004;2023-02-22T13:34:31;2.08;;;1.85;;
9729;SDS011;4904;49.152;11.004;2023-02-22T13:37:38;1.70;;;1.60;;
9729;SDS011;4904;49.152;11.004;2023-02-22T13:40:40;2.72;;;1.80;;
9729;SDS011;4904;49.152;11.004;2023-02-22T13:49:19;2.05;;;1.88;;
9729;SDS011;4904;49.152;11.004;2023-02-22T13:51:57;3.13;;;1.88;;
9729;SDS011;4904;49.152;11.004;2023-02-22T13:54:28;1.70;;;1.60;;
9729;SDS011;4904;49.152;11.004;2023-02-22T13:57:03;3.10;;;1.90;;
9729;SDS011;4904;49.152;11.004;2023-02-22T13:59:42;2.30;;;1.90;;
9729;SDS011;4904;49.152;11.004;2023-02-22T14:02:30;5.05;;;2.30;;
9729;SDS011;4904;49.152;11.004;2023-02-22T14:14:21;2.45;;;1.98;;
9729;SDS011;4904;49.152;11.004;2023-02-22T14:22:54;2.38;;;1.85;;
9729;SDS011;4904;49.152;11.004;2023-02-22T14:25:30;2.78;;;2.30;;
9729;SDS011;4904;49.152;11.004;2023-02-22T14:28:00;2.22;;;1.83;;
9729;SDS011;4904;49.152;11.004;2023-02-22T14:30:29;1.80;;;1.58;;
9729;SDS011;4904;49.152;11.004;2023-02-22T14:32:59;4.38;;;1.65;;
9729;SDS011;4904;49.152;11.004;2023-02-22T14:35:27;2.90;;;1.65;;
9729;SDS011;4904;49.152;11.004;2023-02-22T14:38:01;2.63;;;1.73;;
9729;SDS011;4904;49.152;11.004;2023-02-22T14:40:30;1.63;;;1.52;;
9729;SDS011;4904;49.152;11.004;2023-02-22T14:43:02;2.75;;;1.60;;
9729;SDS011;4904;49.152;11.004;2023-02-22T14:45:34;2.10;;;1.70;;
9729;SDS011;4904;49.152;11.004;2023-02-22T14:48:12;1.88;;;1.70;;
9729;SDS011;4904;49.152;11.004;2023-02-22T14:50:50;1.70;;;1.60;;
9729;SDS011;4904;49.152;11.004;2023-02-22T14:53:25;1.67;;;1.58;;
9729;SDS011;4904;49.152;11.004;2023-02-22T14:55:56;5.75;;;1.95;;
9729;SDS011;4904;49.152;11.004;2023-02-22T14:58:28;2.15;;;1.67;;
9729;SDS011;4904;49.152;11.004;2023-02-22T15:01:14;2.30;;;1.60;;
9729;SDS011;4904;49.152;11.004;2023-02-22T15:03:49;1.80;;;1.70;;
9729;SDS011;4904;49.152;11.004;2023-02-22T15:06:22;1.60;;;1.38;;
9729;SDS011;4904;49.152;11.004;2023-02-22T15:09:03;3.15;;;1.63;;
9729;SDS011;4904;49.152;11.004;2023-02-22T15:11:32;2.38;;;1.70;;
9729;SDS011;4904;49.152;11.004;2023-02-22T15:14:00;1.65;;;1.55;;
9729;SDS011;4904;49.152;11.004;2023-02-22T15:16:28;2.28;;;1.67;;
9729;SDS011;4904;49.152;11.004;2023-02-22T15:18:58;1.70;;;1.60;;
9729;SDS011;4904;49.152;11.004;2023-02-22T15:21:31;1.67;;;1.58;;
9729;SDS011;4904;49.152;11.004;2023-02-22T15:24:00;1.75;;;1.65;;
9729;SDS011;4904;49.152;11.004;2023-02-22T15:26:31;1.70;;;1.60;;
9729;SDS011;4904;49.152;11.004;2023-02-22T15:29:02;1.67;;;1.50;;
9729;SDS011;4904;49.152;11.004;2023-02-22T15:31:34;1.75;;;1.65;;
9729;SDS011;4904;49.152;11.004;2023-02-22T15:34:14;3.30;;;1.70;;
9729;SDS011;4904;49.152;11.004;2023-02-22T15:36:48;2.00;;;1.80;;
9729;SDS011;4904;49.152;11.004;2023-02-22T15:39:19;2.88;;;1.75;;
9729;SDS011;4904;49.152;11.004;2023-02-22T15:41:59;2.22;;;1.77;;
9729;SDS011;4904;49.152;11.004;2023-02-22T15:44:27;1.73;;;1.63;;
9729;SDS011;4904;49.152;11.004;2023-02-22T15:46:54;2.10;;;1.90;;
9729;SDS011;4904;49.152;11.004;2023-02-22T15:49:23;2.35;;;2.10;;
9729;SDS011;4904;49.152;11.004;2023-02-22T15:52:01;2.58;;;2.33;;
9729;SDS011;4904;49.152;11.004;2023-02-22T15:54:41;4.20;;;2.20;;
9729;SDS011;4904;49.152;11.004;2023-02-22T15:57:14;1.83;;;1.73;;